<?xml version="1.0" encoding="UTF-8"?>
<gpx creator="Wikiloc - https://www.wikiloc.com" version="1.1" xmlns="http://www.topografix.com/GPX/1/1" xmlns:xsi="http://www.w3.org/2001/XMLSchema-instance" xsi:schemaLocation="http://www.topografix.com/GPX/1/1 http://www.topografix.com/GPX/1/1/gpx.xsd">
  <metadata>
    <name>Wikiloc - PR3-MAC-ROTA DO CARVOEIRO</name>
    <author>
      <name>ROTAS DE MACAO Outdoor</name>
      <link href="https://www.wikiloc.com/wikiloc/user.do?id=5147262">
        <text>ROTAS DE MACAO Outdoor on Wikiloc</text>
      </link>
    </author>
    <link href="https://www.wikiloc.com/hiking-trails/pr3-mac-rota-do-carvoeiro-163132557">
      <text>PR3-MAC-ROTA DO CARVOEIRO on Wikiloc</text>
    </link>
    <time>2024-03-06T15:26:44.917Z</time>
  </metadata>
  <trk>
    <name>PR3-MAC-ROTA DO CARVOEIRO - Wikiloc</name>
    <cmt>Carvoeiro Beach</cmt>
    <desc>Carvoeiro Beach</desc>
    <trkseg>
      <trkpt lat="39.629699" lon="-7.923490">
        <ele>311.384</ele>
        <time>2026-04-08T14:06:56.523912099Z</time>
      </trkpt>
      <trkpt lat="39.629862" lon="-7.923436">
        <ele>308.907</ele>
        <time>2026-04-08T14:07:36.523916988Z</time>
      </trkpt>
      <trkpt lat="39.630339" lon="-7.923945">
        <ele>310.417</ele>
        <time>2026-04-08T14:08:16.523920524Z</time>
      </trkpt>
      <trkpt lat="39.630825" lon="-7.924141">
        <ele>310.009</ele>
        <time>2026-04-08T14:08:56.523924131Z</time>
      </trkpt>
      <trkpt lat="39.631143" lon="-7.924120">
        <ele>313.239</ele>
        <time>2026-04-08T14:09:36.523927938Z</time>
      </trkpt>
      <trkpt lat="39.631432" lon="-7.924163">
        <ele>316.694</ele>
        <time>2026-04-08T14:10:16.523930653Z</time>
      </trkpt>
      <trkpt lat="39.632058" lon="-7.924077">
        <ele>321.531</ele>
        <time>2026-04-08T14:10:56.523933399Z</time>
      </trkpt>
      <trkpt lat="39.632339" lon="-7.924085">
        <ele>318.429</ele>
        <time>2026-04-08T14:11:36.523936054Z</time>
      </trkpt>
      <trkpt lat="39.633002" lon="-7.924672">
        <ele>327.661</ele>
        <time>2026-04-08T14:12:16.523938708Z</time>
      </trkpt>
      <trkpt lat="39.633638" lon="-7.924855">
        <ele>326.360</ele>
        <time>2026-04-08T14:12:56.523941444Z</time>
      </trkpt>
      <trkpt lat="39.634564" lon="-7.924833">
        <ele>315.653</ele>
        <time>2026-04-08T14:13:36.523944139Z</time>
      </trkpt>
      <trkpt lat="39.635258" lon="-7.925220">
        <ele>313.423</ele>
        <time>2026-04-08T14:14:16.523946914Z</time>
      </trkpt>
      <trkpt lat="39.635588" lon="-7.925606">
        <ele>317.375</ele>
        <time>2026-04-08T14:14:56.523949599Z</time>
      </trkpt>
      <trkpt lat="39.635900" lon="-7.925885">
        <ele>320.481</ele>
        <time>2026-04-08T14:15:36.523952434Z</time>
      </trkpt>
      <trkpt lat="39.636074" lon="-7.926091">
        <ele>321.561</ele>
        <time>2026-04-08T14:16:16.523955149Z</time>
      </trkpt>
      <trkpt lat="39.636328" lon="-7.926303">
        <ele>316.817</ele>
        <time>2026-04-08T14:16:56.523959427Z</time>
      </trkpt>
      <trkpt lat="39.636408" lon="-7.926461">
        <ele>314.509</ele>
        <time>2026-04-08T14:17:36.523962523Z</time>
      </trkpt>
      <trkpt lat="39.636549" lon="-7.926609">
        <ele>311.049</ele>
        <time>2026-04-08T14:18:16.523965428Z</time>
      </trkpt>
      <trkpt lat="39.636970" lon="-7.926644">
        <ele>309.684</ele>
        <time>2026-04-08T14:18:56.523968494Z</time>
      </trkpt>
      <trkpt lat="39.637381" lon="-7.926891">
        <ele>313.021</ele>
        <time>2026-04-08T14:19:36.527299849Z</time>
      </trkpt>
      <trkpt lat="39.637439" lon="-7.927491">
        <ele>313.659</ele>
        <time>2026-04-08T14:20:16.527310128Z</time>
      </trkpt>
      <trkpt lat="39.637563" lon="-7.928004">
        <ele>315.231</ele>
        <time>2026-04-08T14:20:56.527313534Z</time>
      </trkpt>
      <trkpt lat="39.638040" lon="-7.928454">
        <ele>316.820</ele>
        <time>2026-04-08T14:21:36.527316600Z</time>
      </trkpt>
      <trkpt lat="39.638360" lon="-7.928701">
        <ele>315.363</ele>
        <time>2026-04-08T14:22:16.527319526Z</time>
      </trkpt>
      <trkpt lat="39.638701" lon="-7.928717">
        <ele>315.033</ele>
        <time>2026-04-08T14:22:56.527322471Z</time>
      </trkpt>
      <trkpt lat="39.639191" lon="-7.928857">
        <ele>313.075</ele>
        <time>2026-04-08T14:23:36.527325356Z</time>
      </trkpt>
      <trkpt lat="39.639372" lon="-7.928916">
        <ele>314.072</ele>
        <time>2026-04-08T14:24:16.527328963Z</time>
      </trkpt>
      <trkpt lat="39.639612" lon="-7.929130">
        <ele>313.213</ele>
        <time>2026-04-08T14:24:56.527332249Z</time>
      </trkpt>
      <trkpt lat="39.639800" lon="-7.929237">
        <ele>313.814</ele>
        <time>2026-04-08T14:25:36.527335285Z</time>
      </trkpt>
      <trkpt lat="39.640488" lon="-7.928975">
        <ele>315.309</ele>
        <time>2026-04-08T14:26:16.527338331Z</time>
      </trkpt>
      <trkpt lat="39.640928" lon="-7.929181">
        <ele>318.218</ele>
        <time>2026-04-08T14:26:56.527341006Z</time>
      </trkpt>
      <trkpt lat="39.640934" lon="-7.929498">
        <ele>317.143</ele>
        <time>2026-04-08T14:27:36.527343611Z</time>
      </trkpt>
      <trkpt lat="39.640921" lon="-7.929814">
        <ele>315.770</ele>
        <time>2026-04-08T14:28:16.527346346Z</time>
      </trkpt>
      <trkpt lat="39.641027" lon="-7.930200">
        <ele>316.338</ele>
        <time>2026-04-08T14:28:56.527349071Z</time>
      </trkpt>
      <trkpt lat="39.641163" lon="-7.930407">
        <ele>316.970</ele>
        <time>2026-04-08T14:29:36.527351716Z</time>
      </trkpt>
      <trkpt lat="39.641254" lon="-7.930697">
        <ele>317.099</ele>
        <time>2026-04-08T14:30:16.527354401Z</time>
      </trkpt>
      <trkpt lat="39.641211" lon="-7.930852">
        <ele>315.962</ele>
        <time>2026-04-08T14:30:56.527357046Z</time>
      </trkpt>
      <trkpt lat="39.641049" lon="-7.931088">
        <ele>312.632</ele>
        <time>2026-04-08T14:31:36.527359651Z</time>
      </trkpt>
      <trkpt lat="39.641010" lon="-7.931273">
        <ele>311.784</ele>
        <time>2026-04-08T14:32:16.527362296Z</time>
      </trkpt>
      <trkpt lat="39.641035" lon="-7.931598">
        <ele>311.395</ele>
        <time>2026-04-08T14:32:56.527365021Z</time>
      </trkpt>
      <trkpt lat="39.641083" lon="-7.931912">
        <ele>313.049</ele>
        <time>2026-04-08T14:33:36.527367656Z</time>
      </trkpt>
      <trkpt lat="39.641157" lon="-7.932301">
        <ele>314.823</ele>
        <time>2026-04-08T14:34:16.527370381Z</time>
      </trkpt>
      <trkpt lat="39.641209" lon="-7.932655">
        <ele>317.209</ele>
        <time>2026-04-08T14:34:56.527373046Z</time>
      </trkpt>
      <trkpt lat="39.641155" lon="-7.933274">
        <ele>323.040</ele>
        <time>2026-04-08T14:35:36.527375791Z</time>
      </trkpt>
      <trkpt lat="39.641091" lon="-7.933652">
        <ele>325.455</ele>
        <time>2026-04-08T14:36:16.527378436Z</time>
      </trkpt>
      <trkpt lat="39.641000" lon="-7.933929">
        <ele>326.952</ele>
        <time>2026-04-08T14:36:56.527381061Z</time>
      </trkpt>
      <trkpt lat="39.640824" lon="-7.934288">
        <ele>326.530</ele>
        <time>2026-04-08T14:37:36.527383716Z</time>
      </trkpt>
      <trkpt lat="39.640711" lon="-7.934516">
        <ele>325.132</ele>
        <time>2026-04-08T14:38:16.527386361Z</time>
      </trkpt>
      <trkpt lat="39.640746" lon="-7.934757">
        <ele>324.111</ele>
        <time>2026-04-08T14:38:56.527388925Z</time>
      </trkpt>
      <trkpt lat="39.640880" lon="-7.934937">
        <ele>323.034</ele>
        <time>2026-04-08T14:39:36.527391620Z</time>
      </trkpt>
      <trkpt lat="39.641138" lon="-7.935074">
        <ele>322.124</ele>
        <time>2026-04-08T14:40:16.527394296Z</time>
      </trkpt>
      <trkpt lat="39.641252" lon="-7.935152">
        <ele>321.486</ele>
        <time>2026-04-08T14:40:56.527397852Z</time>
      </trkpt>
      <trkpt lat="39.641242" lon="-7.935329">
        <ele>319.586</ele>
        <time>2026-04-08T14:41:36.527418561Z</time>
      </trkpt>
      <trkpt lat="39.641194" lon="-7.935533">
        <ele>318.860</ele>
        <time>2026-04-08T14:42:16.527421486Z</time>
      </trkpt>
      <trkpt lat="39.641359" lon="-7.935742">
        <ele>319.926</ele>
        <time>2026-04-08T14:42:56.527424332Z</time>
      </trkpt>
      <trkpt lat="39.641396" lon="-7.936018">
        <ele>319.509</ele>
        <time>2026-04-08T14:43:36.527427167Z</time>
      </trkpt>
      <trkpt lat="39.641316" lon="-7.936268">
        <ele>318.159</ele>
        <time>2026-04-08T14:44:16.527429952Z</time>
      </trkpt>
      <trkpt lat="39.641186" lon="-7.936423">
        <ele>317.444</ele>
        <time>2026-04-08T14:44:56.527432757Z</time>
      </trkpt>
      <trkpt lat="39.641101" lon="-7.936557">
        <ele>317.171</ele>
        <time>2026-04-08T14:45:36.527435563Z</time>
      </trkpt>
      <trkpt lat="39.641035" lon="-7.936850">
        <ele>318.369</ele>
        <time>2026-04-08T14:46:16.527438418Z</time>
      </trkpt>
      <trkpt lat="39.641021" lon="-7.937228">
        <ele>319.461</ele>
        <time>2026-04-08T14:46:56.527441163Z</time>
      </trkpt>
      <trkpt lat="39.641074" lon="-7.937614">
        <ele>319.790</ele>
        <time>2026-04-08T14:47:36.527443948Z</time>
      </trkpt>
      <trkpt lat="39.641173" lon="-7.937898">
        <ele>320.843</ele>
        <time>2026-04-08T14:48:16.527446974Z</time>
      </trkpt>
      <trkpt lat="39.641235" lon="-7.938089">
        <ele>321.923</ele>
        <time>2026-04-08T14:48:56.527449709Z</time>
      </trkpt>
      <trkpt lat="39.641202" lon="-7.938767">
        <ele>321.075</ele>
        <time>2026-04-08T14:49:36.527452675Z</time>
      </trkpt>
      <trkpt lat="39.641235" lon="-7.939017">
        <ele>320.915</ele>
        <time>2026-04-08T14:50:16.527455490Z</time>
      </trkpt>
      <trkpt lat="39.641578" lon="-7.939288">
        <ele>324.765</ele>
        <time>2026-04-08T14:50:56.527458285Z</time>
      </trkpt>
      <trkpt lat="39.641834" lon="-7.939709">
        <ele>326.211</ele>
        <time>2026-04-08T14:51:36.527461060Z</time>
      </trkpt>
      <trkpt lat="39.641425" lon="-7.940811">
        <ele>322.409</ele>
        <time>2026-04-08T14:52:16.527463846Z</time>
      </trkpt>
      <trkpt lat="39.640548" lon="-7.943080">
        <ele>322.352</ele>
        <time>2026-04-08T14:52:56.527466601Z</time>
      </trkpt>
      <trkpt lat="39.640122" lon="-7.943008">
        <ele>320.777</ele>
        <time>2026-04-08T14:53:36.527469396Z</time>
      </trkpt>
      <trkpt lat="39.639924" lon="-7.943075">
        <ele>321.924</ele>
        <time>2026-04-08T14:54:16.527472111Z</time>
      </trkpt>
      <trkpt lat="39.639823" lon="-7.943236">
        <ele>323.022</ele>
        <time>2026-04-08T14:54:56.527474826Z</time>
      </trkpt>
      <trkpt lat="39.639573" lon="-7.943839">
        <ele>324.454</ele>
        <time>2026-04-08T14:55:36.527477551Z</time>
      </trkpt>
      <trkpt lat="39.639492" lon="-7.944011">
        <ele>325.373</ele>
        <time>2026-04-08T14:56:16.527480347Z</time>
      </trkpt>
      <trkpt lat="39.638852" lon="-7.944644">
        <ele>341.876</ele>
        <time>2026-04-08T14:56:56.527483202Z</time>
      </trkpt>
      <trkpt lat="39.638381" lon="-7.945293">
        <ele>347.646</ele>
        <time>2026-04-08T14:57:36.527485967Z</time>
      </trkpt>
      <trkpt lat="39.638026" lon="-7.945709">
        <ele>351.178</ele>
        <time>2026-04-08T14:58:16.527488612Z</time>
      </trkpt>
      <trkpt lat="39.637794" lon="-7.945862">
        <ele>350.938</ele>
        <time>2026-04-08T14:58:56.527491297Z</time>
      </trkpt>
      <trkpt lat="39.637348" lon="-7.945513">
        <ele>355.670</ele>
        <time>2026-04-08T14:59:36.527493912Z</time>
      </trkpt>
      <trkpt lat="39.636879" lon="-7.945473">
        <ele>360.117</ele>
        <time>2026-04-08T15:00:16.527496477Z</time>
      </trkpt>
      <trkpt lat="39.636324" lon="-7.945575">
        <ele>370.009</ele>
        <time>2026-04-08T15:00:56.527499272Z</time>
      </trkpt>
      <trkpt lat="39.635679" lon="-7.945497">
        <ele>383.374</ele>
        <time>2026-04-08T15:01:36.527501877Z</time>
      </trkpt>
      <trkpt lat="39.635309" lon="-7.945320">
        <ele>383.829</ele>
        <time>2026-04-08T15:02:16.527504512Z</time>
      </trkpt>
      <trkpt lat="39.634898" lon="-7.945183">
        <ele>383.856</ele>
        <time>2026-04-08T15:02:56.527507157Z</time>
      </trkpt>
      <trkpt lat="39.634465" lon="-7.945309">
        <ele>381.484</ele>
        <time>2026-04-08T15:03:36.527509752Z</time>
      </trkpt>
      <trkpt lat="39.633989" lon="-7.945376">
        <ele>382.176</ele>
        <time>2026-04-08T15:04:16.527512346Z</time>
      </trkpt>
      <trkpt lat="39.633651" lon="-7.945175">
        <ele>386.155</ele>
        <time>2026-04-08T15:04:56.527515021Z</time>
      </trkpt>
      <trkpt lat="39.633118" lon="-7.944582">
        <ele>381.018</ele>
        <time>2026-04-08T15:05:36.527517706Z</time>
      </trkpt>
      <trkpt lat="39.632857" lon="-7.944424">
        <ele>382.158</ele>
        <time>2026-04-08T15:06:16.527520301Z</time>
      </trkpt>
      <trkpt lat="39.632546" lon="-7.944328">
        <ele>384.540</ele>
        <time>2026-04-08T15:06:56.527522936Z</time>
      </trkpt>
      <trkpt lat="39.632291" lon="-7.944196">
        <ele>383.777</ele>
        <time>2026-04-08T15:07:36.527525591Z</time>
      </trkpt>
      <trkpt lat="39.631986" lon="-7.944183">
        <ele>381.661</ele>
        <time>2026-04-08T15:08:16.527528256Z</time>
      </trkpt>
      <trkpt lat="39.631798" lon="-7.944341">
        <ele>375.627</ele>
        <time>2026-04-08T15:08:56.527530861Z</time>
      </trkpt>
      <trkpt lat="39.631676" lon="-7.944671">
        <ele>370.509</ele>
        <time>2026-04-08T15:09:36.527533476Z</time>
      </trkpt>
      <trkpt lat="39.631599" lon="-7.945189">
        <ele>369.358</ele>
        <time>2026-04-08T15:10:16.527536071Z</time>
      </trkpt>
      <trkpt lat="39.631767" lon="-7.945851">
        <ele>373.633</ele>
        <time>2026-04-08T15:10:56.527538796Z</time>
      </trkpt>
      <trkpt lat="39.631860" lon="-7.946270">
        <ele>375.060</ele>
        <time>2026-04-08T15:11:36.527541441Z</time>
      </trkpt>
      <trkpt lat="39.631707" lon="-7.946390">
        <ele>371.898</ele>
        <time>2026-04-08T15:12:16.527544026Z</time>
      </trkpt>
      <trkpt lat="39.631730" lon="-7.946653">
        <ele>372.230</ele>
        <time>2026-04-08T15:12:56.527546631Z</time>
      </trkpt>
      <trkpt lat="39.631306" lon="-7.946736">
        <ele>367.039</ele>
        <time>2026-04-08T15:13:36.527549185Z</time>
      </trkpt>
      <trkpt lat="39.631031" lon="-7.946841">
        <ele>365.642</ele>
        <time>2026-04-08T15:14:16.527551770Z</time>
      </trkpt>
      <trkpt lat="39.630806" lon="-7.946766">
        <ele>363.222</ele>
        <time>2026-04-08T15:14:56.527554395Z</time>
      </trkpt>
      <trkpt lat="39.630560" lon="-7.946409">
        <ele>358.344</ele>
        <time>2026-04-08T15:15:36.527557010Z</time>
      </trkpt>
      <trkpt lat="39.629854" lon="-7.946586">
        <ele>357.783</ele>
        <time>2026-04-08T15:16:16.527559645Z</time>
      </trkpt>
      <trkpt lat="39.629515" lon="-7.946723">
        <ele>361.025</ele>
        <time>2026-04-08T15:16:56.527562260Z</time>
      </trkpt>
      <trkpt lat="39.628957" lon="-7.947122">
        <ele>363.217</ele>
        <time>2026-04-08T15:17:36.527564895Z</time>
      </trkpt>
      <trkpt lat="39.628428" lon="-7.947404">
        <ele>364.009</ele>
        <time>2026-04-08T15:18:16.527567510Z</time>
      </trkpt>
      <trkpt lat="39.628079" lon="-7.947364">
        <ele>362.299</ele>
        <time>2026-04-08T15:18:56.527570084Z</time>
      </trkpt>
      <trkpt lat="39.627829" lon="-7.947340">
        <ele>362.954</ele>
        <time>2026-04-08T15:19:36.527572669Z</time>
      </trkpt>
      <trkpt lat="39.627249" lon="-7.947600">
        <ele>369.831</ele>
        <time>2026-04-08T15:20:16.527582117Z</time>
      </trkpt>
      <trkpt lat="39.626538" lon="-7.947975">
        <ele>372.469</ele>
        <time>2026-04-08T15:20:56.527584852Z</time>
      </trkpt>
      <trkpt lat="39.625991" lon="-7.948909">
        <ele>386.221</ele>
        <time>2026-04-08T15:21:36.527587407Z</time>
      </trkpt>
      <trkpt lat="39.625611" lon="-7.949724">
        <ele>383.740</ele>
        <time>2026-04-08T15:22:16.527589972Z</time>
      </trkpt>
      <trkpt lat="39.625392" lon="-7.949917">
        <ele>384.333</ele>
        <time>2026-04-08T15:22:56.527592607Z</time>
      </trkpt>
      <trkpt lat="39.625166" lon="-7.949966">
        <ele>384.733</ele>
        <time>2026-04-08T15:23:36.527596013Z</time>
      </trkpt>
      <trkpt lat="39.625111" lon="-7.950022">
        <ele>385.385</ele>
        <time>2026-04-08T15:24:16.527598698Z</time>
      </trkpt>
      <trkpt lat="39.624916" lon="-7.949756">
        <ele>383.156</ele>
        <time>2026-04-08T15:24:56.527601443Z</time>
      </trkpt>
      <trkpt lat="39.624648" lon="-7.950161">
        <ele>388.059</ele>
        <time>2026-04-08T15:25:36.527604068Z</time>
      </trkpt>
      <trkpt lat="39.624615" lon="-7.950287">
        <ele>388.614</ele>
        <time>2026-04-08T15:26:16.527606693Z</time>
      </trkpt>
      <trkpt lat="39.624233" lon="-7.950778">
        <ele>393.409</ele>
        <time>2026-04-08T15:26:56.527609298Z</time>
      </trkpt>
      <trkpt lat="39.623879" lon="-7.951044">
        <ele>398.766</ele>
        <time>2026-04-08T15:27:36.527611923Z</time>
      </trkpt>
      <trkpt lat="39.623642" lon="-7.950784">
        <ele>397.561</ele>
        <time>2026-04-08T15:28:16.527614558Z</time>
      </trkpt>
      <trkpt lat="39.623388" lon="-7.950151">
        <ele>396.228</ele>
        <time>2026-04-08T15:28:56.527617203Z</time>
      </trkpt>
      <trkpt lat="39.623437" lon="-7.949716">
        <ele>396.996</ele>
        <time>2026-04-08T15:29:36.527619848Z</time>
      </trkpt>
      <trkpt lat="39.623561" lon="-7.949453">
        <ele>394.428</ele>
        <time>2026-04-08T15:30:16.527622483Z</time>
      </trkpt>
      <trkpt lat="39.623507" lon="-7.949094">
        <ele>397.387</ele>
        <time>2026-04-08T15:30:56.527625057Z</time>
      </trkpt>
      <trkpt lat="39.623105" lon="-7.948316">
        <ele>406.590</ele>
        <time>2026-04-08T15:31:36.527627652Z</time>
      </trkpt>
      <trkpt lat="39.623045" lon="-7.947820">
        <ele>407.930</ele>
        <time>2026-04-08T15:32:16.527630367Z</time>
      </trkpt>
      <trkpt lat="39.622543" lon="-7.946900">
        <ele>405.092</ele>
        <time>2026-04-08T15:32:56.527633012Z</time>
      </trkpt>
      <trkpt lat="39.622266" lon="-7.946814">
        <ele>409.351</ele>
        <time>2026-04-08T15:33:36.527635737Z</time>
      </trkpt>
      <trkpt lat="39.621867" lon="-7.946465">
        <ele>408.801</ele>
        <time>2026-04-08T15:34:16.527638382Z</time>
      </trkpt>
      <trkpt lat="39.621472" lon="-7.945714">
        <ele>408.911</ele>
        <time>2026-04-08T15:34:56.527641568Z</time>
      </trkpt>
      <trkpt lat="39.620888" lon="-7.944894">
        <ele>412.809</ele>
        <time>2026-04-08T15:35:36.527645365Z</time>
      </trkpt>
      <trkpt lat="39.620338" lon="-7.944065">
        <ele>411.756</ele>
        <time>2026-04-08T15:36:16.527647940Z</time>
      </trkpt>
      <trkpt lat="39.619772" lon="-7.942903">
        <ele>413.061</ele>
        <time>2026-04-08T15:36:56.527650585Z</time>
      </trkpt>
      <trkpt lat="39.619417" lon="-7.941865">
        <ele>416.488</ele>
        <time>2026-04-08T15:37:36.527653160Z</time>
      </trkpt>
      <trkpt lat="39.618958" lon="-7.940438">
        <ele>418.436</ele>
        <time>2026-04-08T15:38:16.527655835Z</time>
      </trkpt>
      <trkpt lat="39.618687" lon="-7.939878">
        <ele>418.618</ele>
        <time>2026-04-08T15:38:56.527658430Z</time>
      </trkpt>
      <trkpt lat="39.618204" lon="-7.939481">
        <ele>418.287</ele>
        <time>2026-04-08T15:39:36.527661025Z</time>
      </trkpt>
      <trkpt lat="39.616946" lon="-7.939210">
        <ele>408.320</ele>
        <time>2026-04-08T15:40:16.527663640Z</time>
      </trkpt>
      <trkpt lat="39.616483" lon="-7.939167">
        <ele>406.890</ele>
        <time>2026-04-08T15:40:56.527666254Z</time>
      </trkpt>
      <trkpt lat="39.616103" lon="-7.939360">
        <ele>406.172</ele>
        <time>2026-04-08T15:41:36.527668950Z</time>
      </trkpt>
      <trkpt lat="39.615739" lon="-7.939060">
        <ele>405.422</ele>
        <time>2026-04-08T15:42:16.527671625Z</time>
      </trkpt>
      <trkpt lat="39.615193" lon="-7.939188">
        <ele>401.562</ele>
        <time>2026-04-08T15:42:56.527674279Z</time>
      </trkpt>
      <trkpt lat="39.615045" lon="-7.939553">
        <ele>400.908</ele>
        <time>2026-04-08T15:43:36.527676904Z</time>
      </trkpt>
      <trkpt lat="39.615094" lon="-7.940283">
        <ele>398.409</ele>
        <time>2026-04-08T15:44:16.527679529Z</time>
      </trkpt>
      <trkpt lat="39.615028" lon="-7.940583">
        <ele>395.953</ele>
        <time>2026-04-08T15:44:56.527682164Z</time>
      </trkpt>
      <trkpt lat="39.614846" lon="-7.940712">
        <ele>394.718</ele>
        <time>2026-04-08T15:45:36.527684739Z</time>
      </trkpt>
      <trkpt lat="39.614621" lon="-7.941238">
        <ele>392.845</ele>
        <time>2026-04-08T15:46:16.527687304Z</time>
      </trkpt>
      <trkpt lat="39.614400" lon="-7.942415">
        <ele>384.083</ele>
        <time>2026-04-08T15:46:56.527689969Z</time>
      </trkpt>
      <trkpt lat="39.614338" lon="-7.942522">
        <ele>382.995</ele>
        <time>2026-04-08T15:47:36.527692594Z</time>
      </trkpt>
      <trkpt lat="39.614357" lon="-7.943182">
        <ele>382.234</ele>
        <time>2026-04-08T15:48:16.527695169Z</time>
      </trkpt>
      <trkpt lat="39.614383" lon="-7.943461">
        <ele>385.537</ele>
        <time>2026-04-08T15:48:56.527697753Z</time>
      </trkpt>
      <trkpt lat="39.614222" lon="-7.944234">
        <ele>396.847</ele>
        <time>2026-04-08T15:49:36.527700318Z</time>
      </trkpt>
      <trkpt lat="39.613745" lon="-7.945237">
        <ele>403.019</ele>
        <time>2026-04-08T15:50:16.527702913Z</time>
      </trkpt>
      <trkpt lat="39.613751" lon="-7.945518">
        <ele>401.865</ele>
        <time>2026-04-08T15:50:56.527705578Z</time>
      </trkpt>
      <trkpt lat="39.613051" lon="-7.945454">
        <ele>392.168</ele>
        <time>2026-04-08T15:51:36.527708203Z</time>
      </trkpt>
      <trkpt lat="39.612751" lon="-7.945513">
        <ele>386.814</ele>
        <time>2026-04-08T15:52:16.527710828Z</time>
      </trkpt>
      <trkpt lat="39.612573" lon="-7.945591">
        <ele>384.309</ele>
        <time>2026-04-08T15:52:56.527713403Z</time>
      </trkpt>
      <trkpt lat="39.612336" lon="-7.945816">
        <ele>380.027</ele>
        <time>2026-04-08T15:53:36.527716128Z</time>
      </trkpt>
      <trkpt lat="39.612078" lon="-7.945803">
        <ele>377.672</ele>
        <time>2026-04-08T15:54:16.527718683Z</time>
      </trkpt>
      <trkpt lat="39.611747" lon="-7.945390">
        <ele>376.589</ele>
        <time>2026-04-08T15:54:56.527721318Z</time>
      </trkpt>
      <trkpt lat="39.611482" lon="-7.944813">
        <ele>376.887</ele>
        <time>2026-04-08T15:55:36.527723872Z</time>
      </trkpt>
      <trkpt lat="39.611292" lon="-7.944357">
        <ele>378.029</ele>
        <time>2026-04-08T15:56:16.527726487Z</time>
      </trkpt>
      <trkpt lat="39.610937" lon="-7.944057">
        <ele>372.038</ele>
        <time>2026-04-08T15:56:56.527729022Z</time>
      </trkpt>
      <trkpt lat="39.610441" lon="-7.943847">
        <ele>369.391</ele>
        <time>2026-04-08T15:57:36.527731727Z</time>
      </trkpt>
      <trkpt lat="39.610079" lon="-7.943821">
        <ele>364.751</ele>
        <time>2026-04-08T15:58:16.527734322Z</time>
      </trkpt>
      <trkpt lat="39.609761" lon="-7.943906">
        <ele>353.643</ele>
        <time>2026-04-08T15:58:56.527736887Z</time>
      </trkpt>
      <trkpt lat="39.609546" lon="-7.943837">
        <ele>345.335</ele>
        <time>2026-04-08T15:59:36.527743890Z</time>
      </trkpt>
      <trkpt lat="39.609333" lon="-7.943571">
        <ele>339.986</ele>
        <time>2026-04-08T16:00:16.527746525Z</time>
      </trkpt>
      <trkpt lat="39.609141" lon="-7.943064">
        <ele>338.514</ele>
        <time>2026-04-08T16:00:56.527749160Z</time>
      </trkpt>
      <trkpt lat="39.608945" lon="-7.942681">
        <ele>335.109</ele>
        <time>2026-04-08T16:01:36.527751805Z</time>
      </trkpt>
      <trkpt lat="39.608594" lon="-7.942056">
        <ele>329.764</ele>
        <time>2026-04-08T16:02:16.527754379Z</time>
      </trkpt>
      <trkpt lat="39.608306" lon="-7.941726">
        <ele>323.459</ele>
        <time>2026-04-08T16:02:56.527756944Z</time>
      </trkpt>
      <trkpt lat="39.607732" lon="-7.941573">
        <ele>319.196</ele>
        <time>2026-04-08T16:03:36.527759599Z</time>
      </trkpt>
      <trkpt lat="39.607480" lon="-7.941530">
        <ele>313.844</ele>
        <time>2026-04-08T16:04:16.527762304Z</time>
      </trkpt>
      <trkpt lat="39.606653" lon="-7.941412">
        <ele>304.226</ele>
        <time>2026-04-08T16:04:56.527764949Z</time>
      </trkpt>
      <trkpt lat="39.606428" lon="-7.941122">
        <ele>305.715</ele>
        <time>2026-04-08T16:05:36.527767664Z</time>
      </trkpt>
      <trkpt lat="39.606294" lon="-7.941037">
        <ele>300.818</ele>
        <time>2026-04-08T16:06:16.527770239Z</time>
      </trkpt>
      <trkpt lat="39.606203" lon="-7.940940">
        <ele>298.438</ele>
        <time>2026-04-08T16:06:56.527773245Z</time>
      </trkpt>
      <trkpt lat="39.605701" lon="-7.940412">
        <ele>293.910</ele>
        <time>2026-04-08T16:07:36.527775850Z</time>
      </trkpt>
      <trkpt lat="39.605399" lon="-7.940173">
        <ele>289.621</ele>
        <time>2026-04-08T16:08:16.527778505Z</time>
      </trkpt>
      <trkpt lat="39.605035" lon="-7.939709">
        <ele>285.041</ele>
        <time>2026-04-08T16:08:56.527781139Z</time>
      </trkpt>
      <trkpt lat="39.604665" lon="-7.939349">
        <ele>273.205</ele>
        <time>2026-04-08T16:09:36.527783704Z</time>
      </trkpt>
      <trkpt lat="39.604448" lon="-7.939175">
        <ele>266.209</ele>
        <time>2026-04-08T16:10:16.527786259Z</time>
      </trkpt>
      <trkpt lat="39.604390" lon="-7.938979">
        <ele>265.223</ele>
        <time>2026-04-08T16:10:56.527788854Z</time>
      </trkpt>
      <trkpt lat="39.604432" lon="-7.938757">
        <ele>267.298</ele>
        <time>2026-04-08T16:11:36.527791469Z</time>
      </trkpt>
      <trkpt lat="39.604473" lon="-7.938569">
        <ele>269.425</ele>
        <time>2026-04-08T16:12:16.527794084Z</time>
      </trkpt>
      <trkpt lat="39.604717" lon="-7.938260">
        <ele>277.683</ele>
        <time>2026-04-08T16:12:56.527796669Z</time>
      </trkpt>
      <trkpt lat="39.605118" lon="-7.937665">
        <ele>286.025</ele>
        <time>2026-04-08T16:13:36.527799233Z</time>
      </trkpt>
      <trkpt lat="39.605308" lon="-7.937461">
        <ele>289.824</ele>
        <time>2026-04-08T16:14:16.527801808Z</time>
      </trkpt>
      <trkpt lat="39.605922" lon="-7.937145">
        <ele>291.257</ele>
        <time>2026-04-08T16:14:56.527804433Z</time>
      </trkpt>
      <trkpt lat="39.606329" lon="-7.937088">
        <ele>287.337</ele>
        <time>2026-04-08T16:15:36.527807038Z</time>
      </trkpt>
      <trkpt lat="39.606717" lon="-7.937225">
        <ele>290.719</ele>
        <time>2026-04-08T16:16:16.527809713Z</time>
      </trkpt>
      <trkpt lat="39.607112" lon="-7.937378">
        <ele>302.552</ele>
        <time>2026-04-08T16:16:56.527812358Z</time>
      </trkpt>
      <trkpt lat="39.607819" lon="-7.937381">
        <ele>303.853</ele>
        <time>2026-04-08T16:17:36.527815023Z</time>
      </trkpt>
      <trkpt lat="39.608463" lon="-7.937000">
        <ele>298.608</ele>
        <time>2026-04-08T16:18:16.527817648Z</time>
      </trkpt>
      <trkpt lat="39.609011" lon="-7.936858">
        <ele>301.309</ele>
        <time>2026-04-08T16:18:56.527820223Z</time>
      </trkpt>
      <trkpt lat="39.609486" lon="-7.937002">
        <ele>308.126</ele>
        <time>2026-04-08T16:19:36.527822858Z</time>
      </trkpt>
      <trkpt lat="39.609563" lon="-7.936820">
        <ele>310.241</ele>
        <time>2026-04-08T16:20:16.527825492Z</time>
      </trkpt>
      <trkpt lat="39.609445" lon="-7.936219">
        <ele>315.828</ele>
        <time>2026-04-08T16:20:56.527828067Z</time>
      </trkpt>
      <trkpt lat="39.609104" lon="-7.936369">
        <ele>308.786</ele>
        <time>2026-04-08T16:21:36.527830632Z</time>
      </trkpt>
      <trkpt lat="39.608926" lon="-7.936391">
        <ele>305.668</ele>
        <time>2026-04-08T16:22:16.527833297Z</time>
      </trkpt>
      <trkpt lat="39.608354" lon="-7.936150">
        <ele>310.977</ele>
        <time>2026-04-08T16:22:56.527835892Z</time>
      </trkpt>
      <trkpt lat="39.607951" lon="-7.936088">
        <ele>311.220</ele>
        <time>2026-04-08T16:23:36.527838507Z</time>
      </trkpt>
      <trkpt lat="39.607453" lon="-7.935793">
        <ele>321.270</ele>
        <time>2026-04-08T16:24:16.527841142Z</time>
      </trkpt>
      <trkpt lat="39.606759" lon="-7.935404">
        <ele>322.712</ele>
        <time>2026-04-08T16:24:56.527843757Z</time>
      </trkpt>
      <trkpt lat="39.606389" lon="-7.935138">
        <ele>324.635</ele>
        <time>2026-04-08T16:25:36.527846522Z</time>
      </trkpt>
      <trkpt lat="39.606279" lon="-7.934790">
        <ele>324.586</ele>
        <time>2026-04-08T16:26:16.527849187Z</time>
      </trkpt>
      <trkpt lat="39.606254" lon="-7.934382">
        <ele>324.914</ele>
        <time>2026-04-08T16:26:56.527851832Z</time>
      </trkpt>
      <trkpt lat="39.606360" lon="-7.934014">
        <ele>330.509</ele>
        <time>2026-04-08T16:27:36.527854497Z</time>
      </trkpt>
      <trkpt lat="39.606236" lon="-7.933395">
        <ele>332.894</ele>
        <time>2026-04-08T16:28:16.527857072Z</time>
      </trkpt>
      <trkpt lat="39.605901" lon="-7.933164">
        <ele>323.569</ele>
        <time>2026-04-08T16:28:56.527859646Z</time>
      </trkpt>
      <trkpt lat="39.605893" lon="-7.932824">
        <ele>327.486</ele>
        <time>2026-04-08T16:29:36.527862261Z</time>
      </trkpt>
      <trkpt lat="39.605887" lon="-7.932496">
        <ele>330.174</ele>
        <time>2026-04-08T16:30:16.527864836Z</time>
      </trkpt>
      <trkpt lat="39.605800" lon="-7.932357">
        <ele>330.826</ele>
        <time>2026-04-08T16:30:56.527867421Z</time>
      </trkpt>
      <trkpt lat="39.605581" lon="-7.932553">
        <ele>327.775</ele>
        <time>2026-04-08T16:31:36.527870016Z</time>
      </trkpt>
      <trkpt lat="39.605339" lon="-7.932563">
        <ele>324.828</ele>
        <time>2026-04-08T16:32:16.527872621Z</time>
      </trkpt>
      <trkpt lat="39.605101" lon="-7.932494">
        <ele>325.038</ele>
        <time>2026-04-08T16:32:56.527875246Z</time>
      </trkpt>
      <trkpt lat="39.604977" lon="-7.932059">
        <ele>332.190</ele>
        <time>2026-04-08T16:33:36.527877881Z</time>
      </trkpt>
      <trkpt lat="39.604860" lon="-7.931228">
        <ele>335.967</ele>
        <time>2026-04-08T16:34:16.527880586Z</time>
      </trkpt>
      <trkpt lat="39.604659" lon="-7.930538">
        <ele>340.181</ele>
        <time>2026-04-08T16:34:56.527883190Z</time>
      </trkpt>
      <trkpt lat="39.604663" lon="-7.929862">
        <ele>346.719</ele>
        <time>2026-04-08T16:35:36.527885845Z</time>
      </trkpt>
      <trkpt lat="39.604950" lon="-7.928827">
        <ele>354.309</ele>
        <time>2026-04-08T16:36:16.527888460Z</time>
      </trkpt>
      <trkpt lat="39.605079" lon="-7.928637">
        <ele>355.447</ele>
        <time>2026-04-08T16:36:56.527891045Z</time>
      </trkpt>
      <trkpt lat="39.605835" lon="-7.928414">
        <ele>359.542</ele>
        <time>2026-04-08T16:37:36.527893660Z</time>
      </trkpt>
      <trkpt lat="39.606089" lon="-7.928379">
        <ele>359.299</ele>
        <time>2026-04-08T16:38:16.527900132Z</time>
      </trkpt>
      <trkpt lat="39.606221" lon="-7.928661">
        <ele>359.487</ele>
        <time>2026-04-08T16:38:56.527902787Z</time>
      </trkpt>
      <trkpt lat="39.606616" lon="-7.928985">
        <ele>360.099</ele>
        <time>2026-04-08T16:39:36.527905362Z</time>
      </trkpt>
      <trkpt lat="39.607722" lon="-7.929490">
        <ele>360.118</ele>
        <time>2026-04-08T16:40:16.527907917Z</time>
      </trkpt>
      <trkpt lat="39.608482" lon="-7.930992">
        <ele>364.971</ele>
        <time>2026-04-08T16:40:56.527910492Z</time>
      </trkpt>
      <trkpt lat="39.609242" lon="-7.932065">
        <ele>360.991</ele>
        <time>2026-04-08T16:41:36.527913116Z</time>
      </trkpt>
      <trkpt lat="39.610912" lon="-7.932923">
        <ele>363.593</ele>
        <time>2026-04-08T16:42:16.527915781Z</time>
      </trkpt>
      <trkpt lat="39.611623" lon="-7.933009">
        <ele>363.717</ele>
        <time>2026-04-08T16:42:56.527920721Z</time>
      </trkpt>
      <trkpt lat="39.612350" lon="-7.933545">
        <ele>365.487</ele>
        <time>2026-04-08T16:43:36.527923406Z</time>
      </trkpt>
      <trkpt lat="39.612681" lon="-7.934468">
        <ele>368.815</ele>
        <time>2026-04-08T16:44:16.527926061Z</time>
      </trkpt>
      <trkpt lat="39.612962" lon="-7.934961">
        <ele>367.909</ele>
        <time>2026-04-08T16:44:56.527928656Z</time>
      </trkpt>
      <trkpt lat="39.613326" lon="-7.936335">
        <ele>369.422</ele>
        <time>2026-04-08T16:45:36.527931210Z</time>
      </trkpt>
      <trkpt lat="39.614202" lon="-7.934446">
        <ele>357.397</ele>
        <time>2026-04-08T16:46:16.527933805Z</time>
      </trkpt>
      <trkpt lat="39.614929" lon="-7.933781">
        <ele>350.654</ele>
        <time>2026-04-08T16:46:56.527936430Z</time>
      </trkpt>
      <trkpt lat="39.615970" lon="-7.933309">
        <ele>333.142</ele>
        <time>2026-04-08T16:47:36.527939015Z</time>
      </trkpt>
      <trkpt lat="39.616268" lon="-7.932580">
        <ele>322.334</ele>
        <time>2026-04-08T16:48:16.527941640Z</time>
      </trkpt>
      <trkpt lat="39.616284" lon="-7.931979">
        <ele>318.483</ele>
        <time>2026-04-08T16:48:56.527944275Z</time>
      </trkpt>
      <trkpt lat="39.616103" lon="-7.931485">
        <ele>320.926</ele>
        <time>2026-04-08T16:49:36.527947140Z</time>
      </trkpt>
      <trkpt lat="39.616113" lon="-7.931260">
        <ele>323.196</ele>
        <time>2026-04-08T16:50:16.527949785Z</time>
      </trkpt>
      <trkpt lat="39.616241" lon="-7.931249">
        <ele>325.738</ele>
        <time>2026-04-08T16:50:56.527952450Z</time>
      </trkpt>
      <trkpt lat="39.616836" lon="-7.931061">
        <ele>338.813</ele>
        <time>2026-04-08T16:51:36.527955215Z</time>
      </trkpt>
      <trkpt lat="39.617454" lon="-7.930672">
        <ele>344.743</ele>
        <time>2026-04-08T16:52:16.527957850Z</time>
      </trkpt>
      <trkpt lat="39.617793" lon="-7.930501">
        <ele>344.907</ele>
        <time>2026-04-08T16:52:56.527960505Z</time>
      </trkpt>
      <trkpt lat="39.618191" lon="-7.930469">
        <ele>347.209</ele>
        <time>2026-04-08T16:53:36.527963100Z</time>
      </trkpt>
      <trkpt lat="39.618603" lon="-7.929766">
        <ele>356.262</ele>
        <time>2026-04-08T16:54:16.527965695Z</time>
      </trkpt>
      <trkpt lat="39.619324" lon="-7.928819">
        <ele>346.387</ele>
        <time>2026-04-08T16:54:56.527968300Z</time>
      </trkpt>
      <trkpt lat="39.619745" lon="-7.928572">
        <ele>345.564</ele>
        <time>2026-04-08T16:55:36.527970875Z</time>
      </trkpt>
      <trkpt lat="39.620049" lon="-7.928596">
        <ele>341.872</ele>
        <time>2026-04-08T16:56:16.527973479Z</time>
      </trkpt>
      <trkpt lat="39.620398" lon="-7.928304">
        <ele>337.094</ele>
        <time>2026-04-08T16:56:56.527976084Z</time>
      </trkpt>
      <trkpt lat="39.620702" lon="-7.927679">
        <ele>333.823</ele>
        <time>2026-04-08T16:57:36.527978689Z</time>
      </trkpt>
      <trkpt lat="39.620935" lon="-7.927073">
        <ele>331.266</ele>
        <time>2026-04-08T16:58:16.527981304Z</time>
      </trkpt>
      <trkpt lat="39.621493" lon="-7.926587">
        <ele>319.346</ele>
        <time>2026-04-08T16:58:56.527983859Z</time>
      </trkpt>
      <trkpt lat="39.621640" lon="-7.925861">
        <ele>311.588</ele>
        <time>2026-04-08T16:59:36.527986524Z</time>
      </trkpt>
      <trkpt lat="39.621654" lon="-7.924857">
        <ele>302.027</ele>
        <time>2026-04-08T17:00:16.527989179Z</time>
      </trkpt>
      <trkpt lat="39.621712" lon="-7.924120">
        <ele>294.068</ele>
        <time>2026-04-08T17:00:56.527991844Z</time>
      </trkpt>
      <trkpt lat="39.621648" lon="-7.923798">
        <ele>293.114</ele>
        <time>2026-04-08T17:01:36.527994459Z</time>
      </trkpt>
      <trkpt lat="39.621784" lon="-7.923382">
        <ele>292.309</ele>
        <time>2026-04-08T17:02:16.527997084Z</time>
      </trkpt>
      <trkpt lat="39.621747" lon="-7.923063">
        <ele>291.923</ele>
        <time>2026-04-08T17:02:56.528001392Z</time>
      </trkpt>
      <trkpt lat="39.621561" lon="-7.922910">
        <ele>290.638</ele>
        <time>2026-04-08T17:03:36.528004768Z</time>
      </trkpt>
      <trkpt lat="39.621351" lon="-7.922513">
        <ele>287.795</ele>
        <time>2026-04-08T17:04:16.528008084Z</time>
      </trkpt>
      <trkpt lat="39.621543" lon="-7.922213">
        <ele>287.913</ele>
        <time>2026-04-08T17:04:56.528015508Z</time>
      </trkpt>
      <trkpt lat="39.622431" lon="-7.922502">
        <ele>298.435</ele>
        <time>2026-04-08T17:05:36.528018113Z</time>
      </trkpt>
      <trkpt lat="39.622786" lon="-7.923235">
        <ele>301.184</ele>
        <time>2026-04-08T17:06:16.528020678Z</time>
      </trkpt>
      <trkpt lat="39.623873" lon="-7.923068">
        <ele>312.577</ele>
        <time>2026-04-08T17:06:56.528023212Z</time>
      </trkpt>
      <trkpt lat="39.624778" lon="-7.923307">
        <ele>318.257</ele>
        <time>2026-04-08T17:07:36.528025827Z</time>
      </trkpt>
      <trkpt lat="39.624770" lon="-7.923707">
        <ele>320.059</ele>
        <time>2026-04-08T17:08:16.528028492Z</time>
      </trkpt>
      <trkpt lat="39.624999" lon="-7.923975">
        <ele>320.577</ele>
        <time>2026-04-08T17:08:56.528031137Z</time>
      </trkpt>
      <trkpt lat="39.625243" lon="-7.924581">
        <ele>319.361</ele>
        <time>2026-04-08T17:09:36.528033762Z</time>
      </trkpt>
      <trkpt lat="39.627077" lon="-7.925842">
        <ele>333.027</ele>
        <time>2026-04-08T17:10:16.528036367Z</time>
      </trkpt>
      <trkpt lat="39.627937" lon="-7.926486">
        <ele>335.909</ele>
        <time>2026-04-08T17:10:56.528038982Z</time>
      </trkpt>
      <trkpt lat="39.628614" lon="-7.925155">
        <ele>331.868</ele>
        <time>2026-04-08T17:11:36.528041567Z</time>
      </trkpt>
      <trkpt lat="39.629689" lon="-7.923589">
        <ele>311.893</ele>
        <time>2026-04-08T17:12:16.528044172Z</time>
      </trkpt>
    </trkseg>
  </trk></gpx>